Hermann - S — V2EI6 — position and weather

sailwx.info

Track history (hours):
 
Tides and Currents Weather Stations Pressure Air Temp Water Temp Dewpoint Dewpoint Depression Visibility Wind Speed Wind Dir Waves Ship Positions

Hermann - S

Last reported at 2014-Nov-12 04:09 UTC. Time now 2014-Nov-27 13:14 UTC.
Position S 24°14' W 046°19'.
Warning: this ship's position is 15 days out of date.

Length 190 m; draft 11.7 m.

Type: Cargo ship. MMSI: 305441000.

Date/timePositionNaut miles runAvg speedWind from/ knotsBaromVisibWave heightAir tempDewpointWater temp
2014-Nov-12 04:09S 24°14' W 046°19'710.7
2014-Nov-12 03:29S 24°07' W 046°22'8 8.9
2014-Nov-12 02:34S 23°60' W 046°19'3 2.4
2014-Nov-12 01:26S 23°57' W 046°19'0 0.0
2014-Nov-12 00:20S 23°57' W 046°19'0 0.0
2014-Nov-11 23:32S 23°57' W 046°19'0 0.0
2014-Nov-11 22:29S 23°57' W 046°19'0 0.0
2014-Nov-11 21:32S 23°57' W 046°19'0 0.0
2014-Nov-11 20:32S 23°57' W 046°19'0 0.0
2014-Nov-11 19:29S 23°57' W 046°19'0 0.0
2014-Nov-11 18:32S 23°57' W 046°19'0 0.0
2014-Nov-11 17:32S 23°57' W 046°19'0 0.0
2014-Nov-11 16:29S 23°57' W 046°19'0 0.0
2014-Nov-11 15:26S 23°57' W 046°19'0 0.0
2014-Nov-11 14:32S 23°57' W 046°19'0 0.0
2014-Nov-11 13:32S 23°57' W 046°19'0 0.0
2014-Nov-11 12:32S 23°57' W 046°19'0 0.0
2014-Nov-11 11:32S 23°57' W 046°19'0 0.0
2014-Nov-11 10:32S 23°57' W 046°19'0 0.0
2014-Nov-11 09:32S 23°57' W 046°19'0 0.0
2014-Nov-11 08:32S 23°57' W 046°19'0 0.0
2014-Nov-11 07:32S 23°57' W 046°19'0 0.0
2014-Nov-11 06:32S 23°57' W 046°19'0 0.0
2014-Nov-11 05:29S 23°57' W 046°19'0 0.0
2014-Nov-11 04:29S 23°57' W 046°19'0 0.0
2014-Nov-11 03:32S 23°57' W 046°19'0 0.0
2014-Nov-11 02:29S 23°57' W 046°19'0 0.0
2014-Nov-11 01:32S 23°57' W 046°19'0 0.0
2014-Nov-11 00:23S 23°57' W 046°19'0 0.0
2014-Nov-10 23:32S 23°57' W 046°19'0 0.0
2014-Nov-10 22:32S 23°57' W 046°19'0 0.0
2014-Nov-10 21:32S 23°57' W 046°19'0 0.0
2014-Nov-10 20:26S 23°57' W 046°19'0 0.0
2014-Nov-10 19:32S 23°57' W 046°19'0 0.0
2014-Nov-10 18:32S 23°57' W 046°19'0 0.0
2014-Nov-10 17:32S 23°57' W 046°19'0 0.0
2014-Nov-10 16:32S 23°57' W 046°19'0 0.0
2014-Nov-10 15:32S 23°57' W 046°19'0 0.0
2014-Nov-10 14:32S 23°57' W 046°19'0 0.0
2014-Nov-10 13:32S 23°57' W 046°19'0 0.0
2014-Nov-10 12:32S 23°57' W 046°19'0 0.0
2014-Nov-10 11:32S 23°57' W 046°19'0 0.0
2014-Nov-10 10:32S 23°57' W 046°19'0 0.0
2014-Nov-10 09:32S 23°57' W 046°19'0 0.0
2014-Nov-10 08:32S 23°57' W 046°19'0 0.0
2014-Nov-10 07:32S 23°57' W 046°19'0 0.0
2014-Nov-10 06:32S 23°57' W 046°19'0 0.0
2014-Nov-10 05:32S 23°57' W 046°19'0 0.0
2014-Nov-10 04:32S 23°57' W 046°19'0 0.0
2014-Nov-10 03:32S 23°57' W 046°19'5 5.2
2014-Nov-10 02:33S 24°02' W 046°21'7 6.9
2014-Nov-10 01:33S 24°08' W 046°20'0 0.0
2014-Nov-09 22:17S 24°08' W 046°20'0 0.0
2014-Nov-09 16:23S 24°08' W 046°20'0 0.0
2014-Nov-09 15:29S 24°08' W 046°20'0 0.0
2014-Nov-09 10:23S 24°08' W 046°20'0 0.0
2014-Nov-09 08:11S 24°08' W 046°20'0 0.0
2014-Nov-09 06:29S 24°08' W 046°20'0 0.0
2014-Nov-09 01:17S 24°08' W 046°20'0 0.0
2014-Nov-08 16:29S 24°08' W 046°20'0 0.0
2014-Nov-08 14:11S 24°08' W 046°20'0 0.0
2014-Nov-08 13:05S 24°08' W 046°20'0 0.0
2014-Nov-08 02:23S 24°08' W 046°20'0 0.1
2014-Nov-07 23:11S 24°09' W 046°20'0 0.0
2014-Nov-07 17:05S 24°08' W 046°20'0 0.0
2014-Nov-07 11:11S 24°09' W 046°20'0 0.0
2014-Nov-07 06:17S 24°08' W 046°20'0 0.0
2014-Nov-07 00:05S 24°08' W 046°20'0 0.0
2014-Nov-06 23:17S 24°08' W 046°20'0 0.0
2014-Nov-06 22:32S 24°08' W 046°20'0 0.0
2014-Nov-06 19:17S 24°08' W 046°20'0 0.0
2014-Nov-06 18:29S 24°08' W 046°20'0 0.0
2014-Nov-06 17:17S 24°08' W 046°20'0 0.0
2014-Nov-06 15:29S 24°08' W 046°20'0 0.0
2014-Nov-06 09:05S 24°08' W 046°20'0 0.0
2014-Nov-06 08:17S 24°08' W 046°20'0 0.0
2014-Nov-06 07:05S 24°08' W 046°20'0 0.0
2014-Nov-06 06:17S 24°08' W 046°20'0 0.0
2014-Nov-06 04:23S 24°08' W 046°20'0 0.0
2014-Nov-06 03:29S 24°08' W 046°20'0 0.0
2014-Nov-06 02:17S 24°08' W 046°20'0 0.0
2014-Nov-05 14:20S 24°09' W 046°20'0 0.0
2014-Nov-05 13:29S 24°09' W 046°20'0 0.0
2014-Nov-05 12:29S 24°09' W 046°20'0 0.1
2014-Nov-05 08:29S 24°09' W 046°20'0 0.0
2014-Nov-05 06:11S 24°09' W 046°20'0 0.0
2014-Nov-05 03:29S 24°09' W 046°20'0 0.0
2014-Nov-05 01:23S 24°09' W 046°20'0 0.0
2014-Nov-04 14:14S 24°09' W 046°20'0 0.0
2014-Nov-04 13:26S 24°09' W 046°20'0 0.0
2014-Nov-04 12:23S 24°09' W 046°20'0 0.0
2014-Nov-04 11:05S 24°09' W 046°20'0 0.0
2014-Nov-04 10:26S 24°09' W 046°20'0 0.0
2014-Nov-04 09:32S 24°09' W 046°20'0 0.0
2014-Nov-04 08:29S 24°09' W 046°20'0 0.0
2014-Nov-04 07:29S 24°09' W 046°20'0 0.0
2014-Nov-04 06:29S 24°09' W 046°20'0 0.0
2014-Nov-04 05:11S 24°09' W 046°20'0 0.0
2014-Nov-04 04:29S 24°09' W 046°20'0 0.0
2014-Nov-04 03:23S 24°09' W 046°20'0 0.0
2014-Nov-04 02:23S 24°09' W 046°20'0 0.0
2014-Nov-04 01:29S 24°09' W 046°20'0 0.0
2014-Nov-03 21:08S 24°09' W 046°20'0 0.0
2014-Nov-03 20:26S 24°09' W 046°20'0 0.0
2014-Nov-03 18:47S 24°09' W 046°20'0 0.0
2014-Nov-03 18:26S 24°09' W 046°20'0 0.0
2014-Nov-03 07:29S 24°09' W 046°20'0 0.0
2014-Nov-03 03:23S 24°09' W 046°20'0 0.0
2014-Nov-02 23:23S 24°09' W 046°20'0 0.0
2014-Nov-02 09:11S 24°09' W 046°20'0 0.0
2014-Nov-02 08:20S 24°09' W 046°20'0 0.0
2014-Nov-02 07:29S 24°09' W 046°20'0 0.0
2014-Nov-02 06:23S 24°09' W 046°20'0 0.0
2014-Nov-02 05:29S 24°09' W 046°20'  
Track history (hours):
 
Tides and Currents Weather Stations Pressure Air Temp Water Temp Dewpoint Dewpoint Depression Visibility Wind Speed Wind Dir Waves Ship Positions

Hermann - S

Last reported at 2014-Nov-12 04:09 UTC. Time now 2014-Nov-27 13:14 UTC.
Position S 24°14' W 046°19'.
Warning: this ship's position is 15 days out of date.

Length 190 m; draft 11.7 m.

Type: Cargo ship. MMSI: 305441000.

Date/timePositionNaut miles runAvg speedWind from/ knotsBaromVisibWave heightAir tempDewpointWater temp
2014-Nov-12 04:09S 24°14' W 046°19'710.7
2014-Nov-12 03:29S 24°07' W 046°22'8 8.9
2014-Nov-12 02:34S 23°60' W 046°19'3 2.4
2014-Nov-12 01:26S 23°57' W 046°19'0 0.0
2014-Nov-12 00:20S 23°57' W 046°19'0 0.0
2014-Nov-11 23:32S 23°57' W 046°19'0 0.0
2014-Nov-11 22:29S 23°57' W 046°19'0 0.0
2014-Nov-11 21:32S 23°57' W 046°19'0 0.0
2014-Nov-11 20:32S 23°57' W 046°19'0 0.0
2014-Nov-11 19:29S 23°57' W 046°19'0 0.0
2014-Nov-11 18:32S 23°57' W 046°19'0 0.0
2014-Nov-11 17:32S 23°57' W 046°19'0 0.0
2014-Nov-11 16:29S 23°57' W 046°19'0 0.0
2014-Nov-11 15:26S 23°57' W 046°19'0 0.0
2014-Nov-11 14:32S 23°57' W 046°19'0 0.0
2014-Nov-11 13:32S 23°57' W 046°19'0 0.0
2014-Nov-11 12:32S 23°57' W 046°19'0 0.0
2014-Nov-11 11:32S 23°57' W 046°19'0 0.0
2014-Nov-11 10:32S 23°57' W 046°19'0 0.0
2014-Nov-11 09:32S 23°57' W 046°19'0 0.0
2014-Nov-11 08:32S 23°57' W 046°19'0 0.0
2014-Nov-11 07:32S 23°57' W 046°19'0 0.0
2014-Nov-11 06:32S 23°57' W 046°19'0 0.0
2014-Nov-11 05:29S 23°57' W 046°19'0 0.0
2014-Nov-11 04:29S 23°57' W 046°19'0 0.0
2014-Nov-11 03:32S 23°57' W 046°19'0 0.0
2014-Nov-11 02:29S 23°57' W 046°19'0 0.0
2014-Nov-11 01:32S 23°57' W 046°19'0 0.0
2014-Nov-11 00:23S 23°57' W 046°19'0 0.0
2014-Nov-10 23:32S 23°57' W 046°19'0 0.0
2014-Nov-10 22:32S 23°57' W 046°19'0 0.0
2014-Nov-10 21:32S 23°57' W 046°19'0 0.0
2014-Nov-10 20:26S 23°57' W 046°19'0 0.0
2014-Nov-10 19:32S 23°57' W 046°19'0 0.0
2014-Nov-10 18:32S 23°57' W 046°19'0 0.0
2014-Nov-10 17:32S 23°57' W 046°19'0 0.0
2014-Nov-10 16:32S 23°57' W 046°19'0 0.0
2014-Nov-10 15:32S 23°57' W 046°19'0 0.0
2014-Nov-10 14:32S 23°57' W 046°19'0 0.0
2014-Nov-10 13:32S 23°57' W 046°19'0 0.0
2014-Nov-10 12:32S 23°57' W 046°19'0 0.0
2014-Nov-10 11:32S 23°57' W 046°19'0 0.0
2014-Nov-10 10:32S 23°57' W 046°19'0 0.0
2014-Nov-10 09:32S 23°57' W 046°19'0 0.0
2014-Nov-10 08:32S 23°57' W 046°19'0 0.0
2014-Nov-10 07:32S 23°57' W 046°19'0 0.0
2014-Nov-10 06:32S 23°57' W 046°19'0 0.0
2014-Nov-10 05:32S 23°57' W 046°19'0 0.0
2014-Nov-10 04:32S 23°57' W 046°19'0 0.0
2014-Nov-10 03:32S 23°57' W 046°19'5 5.2
2014-Nov-10 02:33S 24°02' W 046°21'7 6.9
2014-Nov-10 01:33S 24°08' W 046°20'0 0.0
2014-Nov-09 22:17S 24°08' W 046°20'0 0.0
2014-Nov-09 16:23S 24°08' W 046°20'0 0.0
2014-Nov-09 15:29S 24°08' W 046°20'0 0.0
2014-Nov-09 10:23S 24°08' W 046°20'0 0.0
2014-Nov-09 08:11S 24°08' W 046°20'0 0.0
2014-Nov-09 06:29S 24°08' W 046°20'0 0.0
2014-Nov-09 01:17S 24°08' W 046°20'0 0.0
2014-Nov-08 16:29S 24°08' W 046°20'0 0.0
2014-Nov-08 14:11S 24°08' W 046°20'0 0.0
2014-Nov-08 13:05S 24°08' W 046°20'0 0.0
2014-Nov-08 02:23S 24°08' W 046°20'0 0.1
2014-Nov-07 23:11S 24°09' W 046°20'0 0.0
2014-Nov-07 17:05S 24°08' W 046°20'0 0.0
2014-Nov-07 11:11S 24°09' W 046°20'0 0.0
2014-Nov-07 06:17S 24°08' W 046°20'0 0.0
2014-Nov-07 00:05S 24°08' W 046°20'0 0.0
2014-Nov-06 23:17S 24°08' W 046°20'0 0.0
2014-Nov-06 22:32S 24°08' W 046°20'0 0.0
2014-Nov-06 19:17S 24°08' W 046°20'0 0.0
2014-Nov-06 18:29S 24°08' W 046°20'0 0.0
2014-Nov-06 17:17S 24°08' W 046°20'0 0.0
2014-Nov-06 15:29S 24°08' W 046°20'0 0.0
2014-Nov-06 09:05S 24°08' W 046°20'0 0.0
2014-Nov-06 08:17S 24°08' W 046°20'0 0.0
2014-Nov-06 07:05S 24°08' W 046°20'0 0.0
2014-Nov-06 06:17S 24°08' W 046°20'0 0.0
2014-Nov-06 04:23S 24°08' W 046°20'0 0.0
2014-Nov-06 03:29S 24°08' W 046°20'0 0.0
2014-Nov-06 02:17S 24°08' W 046°20'0 0.0
2014-Nov-05 14:20S 24°09' W 046°20'0 0.0
2014-Nov-05 13:29S 24°09' W 046°20'0 0.0
2014-Nov-05 12:29S 24°09' W 046°20'0 0.1
2014-Nov-05 08:29S 24°09' W 046°20'0 0.0
2014-Nov-05 06:11S 24°09' W 046°20'0 0.0
2014-Nov-05 03:29S 24°09' W 046°20'0 0.0
2014-Nov-05 01:23S 24°09' W 046°20'0 0.0
2014-Nov-04 14:14S 24°09' W 046°20'0 0.0
2014-Nov-04 13:26S 24°09' W 046°20'0 0.0
2014-Nov-04 12:23S 24°09' W 046°20'0 0.0
2014-Nov-04 11:05S 24°09' W 046°20'0 0.0
2014-Nov-04 10:26S 24°09' W 046°20'0 0.0
2014-Nov-04 09:32S 24°09' W 046°20'0 0.0
2014-Nov-04 08:29S 24°09' W 046°20'0 0.0
2014-Nov-04 07:29S 24°09' W 046°20'0 0.0
2014-Nov-04 06:29S 24°09' W 046°20'0 0.0
2014-Nov-04 05:11S 24°09' W 046°20'0 0.0
2014-Nov-04 04:29S 24°09' W 046°20'0 0.0
2014-Nov-04 03:23S 24°09' W 046°20'0 0.0
2014-Nov-04 02:23S 24°09' W 046°20'0 0.0
2014-Nov-04 01:29S 24°09' W 046°20'0 0.0
2014-Nov-03 21:08S 24°09' W 046°20'0 0.0
2014-Nov-03 20:26S 24°09' W 046°20'0 0.0
2014-Nov-03 18:47S 24°09' W 046°20'0 0.0
2014-Nov-03 18:26S 24°09' W 046°20'0 0.0
2014-Nov-03 07:29S 24°09' W 046°20'0 0.0
2014-Nov-03 03:23S 24°09' W 046°20'0 0.0
2014-Nov-02 23:23S 24°09' W 046°20'0 0.0
2014-Nov-02 09:11S 24°09' W 046°20'0 0.0
2014-Nov-02 08:20S 24°09' W 046°20'0 0.0
2014-Nov-02 07:29S 24°09' W 046°20'0 0.0
2014-Nov-02 06:23S 24°09' W 046°20'0 0.0
2014-Nov-02 05:29S 24°09' W 046°20'  

Dump ship's entire track history